• Join FlightAware (Why Join?)
  • Login
  • US Flag 
11:54AM EDT


 

Airport Tracker/Info


-or-


 

Live Flight TrackerFlight Track Log ✈ ASQ4283 ✈ 25-Aug-2013 ✈ KDFW - KIAH

Flight Track Log - Related Links

Times and Time Zones

All times are in EDT time to prevent confusion due to time zone crossing. See the ASQ4283 flight status page for this flight to view local times or setup timezone preferences in your user account.

Time Position Orientation Groundspeed Altitude Reporting Facility
EDT Latitude Longitude Course Direction KTS MPH feet Rate Location/Type
10:30AM 32.8833 -97.0333 157° South 177 204 1,300  Level Dallas / Fort Worth TRACON
10:31AM 32.8333 -97.0333 180° South 215 247 3,900 2,400 Climbing Dallas / Fort Worth TRACON
10:33AM 32.7106 -96.9259 157° South  Level Estimated
10:33AM 32.7253 -97.0314 179° South 264 304 7,600  Level Houston Center
10:33AM 32.6719 -97.0136 164° South 275 316 9,900 2,580 Climbing Fort Worth Center
10:34AM 32.6485 -96.8886 157° South  Level Estimated
10:34AM 32.5967 -96.9744 156° South 281 323 11,900  Level Fort Worth Center
10:35AM 32.5864 -96.8514 157° South  Level Estimated
10:35AM 32.5108 -96.9331 158° South 322 371 13,500  Level Fort Worth Center
10:36AM 32.4211 -96.8892 158° South 342 394 15,100 1,620 Climbing Fort Worth Center
10:37AM 32.3414 -96.8478 156° South 347 399 16,800 1,620 Climbing Fort Worth Center
10:38AM 32.2389 -96.7994 158° South 359 413 18,400 1,080 Climbing Fort Worth Center
10:39AM 32.1511 -96.7681 163° South 364 419 19,000 300 Climbing Fort Worth Center
10:40AM 32.0422 -96.7247 161° South 385 443 19,000  Level Fort Worth Center
10:41AM 31.9294 -96.6814 162° South 413 475 19,000  Level Fort Worth Center
10:42AM 31.8567 -96.6533 162° South 426 490 19,000  Level Houston Center
10:43AM 31.7422 -96.6039 160° South 433 498 19,000  Level Houston Center
10:44AM 31.6275 -96.5575 161° South 431 496 19,000  Level Houston Center
10:45AM 31.5125 -96.5111 161° South 432 497 19,000  Level Houston Center
10:46AM 31.3969 -96.4686 163° South 430 495 19,000  Level Houston Center
10:47AM 31.2822 -96.4253 162° South 428 493 19,000  Level Houston Center
10:48AM 31.1697 -96.3833 162° South 421 484 19,000 -480 Level Houston Center
10:49AM 31.0619 -96.3431 162° South 405 466 18,100 -1,140 Descending Houston Center
10:50AM 30.9575 -96.3042 162° South 394 453 16,700 -1,080 Descending Houston Center
10:51AM 30.8564 -96.2664 162° South 383 441 16,000 -360 Descending Houston Center
10:52AM 30.7728 -96.1989 145° Southeast 372 428 16,000 -840 Level Houston Center
10:53AM 30.6806 -96.1025 138° Southeast 374 430 14,400 -1,380 Descending Houston Center
10:54AM 30.6144 -96.0328 138° Southeast 369 425 13,200 -1,260 Descending Houston Center
10:55AM 30.5464 -95.9586 137° Southeast 345 397 11,900 -1,320 Descending Houston Center
10:56AM 30.4794 -95.8878 138° Southeast 327 376 10,500 -1,020 Descending Houston Center
10:57AM 30.4014 -95.8069 138° Southeast 315 362 9,900 -840 Descending Houston Center
10:58AM 30.3344 -95.7586 148° Southeast 294 338 8,900 -960 Descending Houston Center
10:59AM 30.2556 -95.7889 198° South 297 342 8,000 -480 Descending Houston Center
11:00AM 30.1883 -95.8281 207° Southwest 280 322 8,000  Level Houston Center
11:01AM 30.1261 -95.8653 207° Southwest 261 300 8,000 -60 Level Houston Center
11:02AM 30.0561 -95.8744 186° South 262 302 7,900  Descending Houston Center
11:03AM 30.0117 -95.8214 134° Southeast 233 268 8,000 -120 Climbing Houston Center
11:04AM 29.9889 -95.7400 108° East 231 266 7,700 -660 Descending Houston Center
11:05AM 29.9969 -95.6778 81° East 203 234 6,700 -1,560 Descending Houston Center
11:06AM 29.9917 -95.6211 96° East 184 212 4,600 -1,560 Descending Houston Center
11:07AM 29.9936 -95.5683 88° East 171 197 3,600 -900 Descending Houston Center
11:08AM 29.9939 -95.5175 90° East 164 189 2,800 -900 Descending Houston Center
11:10AM 29.9931 -95.4581 91° East 157 181 1,700 -840 Descending Houston Center
11:10AM 29.9933 -95.4236 89° East 150 173 1,200 -600 Descending Houston Center
11:12AM 29.9939 -95.3833 89° East 137 158 600 -480 Descending Houston Center
11:13AM 29.9939 -95.3344 90° East 134 154 300 -300 Descending Houston Center